Time;durP1;ratioP1;P1;durP2;ratioP2;P2;SDS_P1;SDS_P2;PMS_P1;PMS_P2;Temp;Humidity;BMP_temperature;BMP_pressure;BME280_temperature;BME280_humidity;BME280_pressure;Samples;Min_cycle;Max_cycle;Signal;HPM_P1;HPM_P2
2021/10/29 00:00:07;;;;;;;14.27;10.77;;;14.90;85.20;;;;;;5059238;28;20066;-76
2021/10/29 00:02:33;;;;;;;14.80;10.35;;;14.90;85.10;;;;;;5037901;28;20028;-77
2021/10/29 00:04:59;;;;;;;15.05;9.68;;;14.90;85.00;;;;;;5031886;28;20018;-76
2021/10/29 00:07:25;;;;;;;18.42;10.27;;;14.90;84.90;;;;;;5031811;28;20033;-76
2021/10/29 00:09:51;;;;;;;15.02;10.13;;;14.90;84.80;;;;;;5031612;28;20411;-77
2021/10/29 00:12:18;;;;;;;14.02;9.75;;;14.90;84.70;;;;;;5033005;28;20017;-77
2021/10/29 00:14:45;;;;;;;14.90;9.88;;;14.90;84.80;;;;;;5031710;28;20111;-77
2021/10/29 00:17:11;;;;;;;16.92;10.77;;;14.90;84.80;;;;;;5032712;28;20092;-77
2021/10/29 00:19:37;;;;;;;13.45;9.27;;;14.90;84.70;;;;;;5031418;28;20026;-77
2021/10/29 00:22:03;;;;;;;15.30;10.02;;;15.00;84.70;;;;;;5032761;28;20109;-77
2021/10/29 00:24:29;;;;;;;14.80;10.15;;;14.90;84.50;;;;;;5032790;28;20037;-77
2021/10/29 00:26:54;;;;;;;14.80;9.98;;;14.90;84.50;;;;;;5032747;28;20032;-76
2021/10/29 00:29:21;;;;;;;16.23;9.88;;;14.90;84.50;;;;;;5031326;28;20065;-77
2021/10/29 00:31:47;;;;;;;14.00;10.13;;;15.00;84.70;;;;;;5032705;28;20049;-76
2021/10/29 00:34:13;;;;;;;15.15;10.40;;;14.90;84.80;;;;;;5032453;28;20049;-78
2021/10/29 00:36:39;;;;;;;14.98;10.93;;;14.90;85.00;;;;;;5031396;28;20025;-78
2021/10/29 00:39:05;;;;;;;14.10;9.85;;;14.90;85.00;;;;;;5032342;28;20025;-78
2021/10/29 00:41:33;;;;;;;14.02;10.18;;;14.90;85.20;;;;;;5031376;28;20024;-78
2021/10/29 00:43:59;;;;;;;13.73;10.00;;;14.80;85.30;;;;;;5031304;28;20025;-78
2021/10/29 00:46:24;;;;;;;15.13;10.65;;;14.80;85.30;;;;;;5037757;28;20556;-77
2021/10/29 00:48:51;;;;;;;13.93;10.18;;;14.90;85.50;;;;;;5032127;28;20036;-78
2021/10/29 00:51:18;;;;;;;13.20;9.82;;;14.80;85.60;;;;;;5032421;28;20099;-78
2021/10/29 00:53:44;;;;;;;16.10;10.23;;;14.80;85.50;;;;;;5031101;28;20116;-77
2021/10/29 00:56:09;;;;;;;15.50;10.05;;;14.80;85.50;;;;;;5047821;28;20487;-78
2021/10/29 00:58:35;;;;;;;14.27;10.27;;;14.80;86.20;;;;;;5031845;28;20064;-78
2021/10/29 01:01:03;;;;;;;14.40;10.27;;;14.80;85.40;;;;;;5049095;28;20387;-76
2021/10/29 01:03:29;;;;;;;13.60;10.45;;;14.80;85.70;;;;;;5052119;28;20041;-77
2021/10/29 01:05:54;;;;;;;14.43;10.70;;;14.80;85.50;;;;;;5036176;28;20026;-76
2021/10/29 01:08:20;;;;;;;14.20;9.85;;;14.80;85.60;;;;;;5051570;28;20033;-78
2021/10/29 01:10:50;;;;;;;14.55;10.38;;;14.80;85.50;;;;;;5051592;28;20578;-78
2021/10/29 01:13:16;;;;;;;14.10;9.68;;;14.80;85.50;;;;;;5036095;28;20026;-78
2021/10/29 01:15:43;;;;;;;14.57;11.00;;;14.80;85.50;;;;;;5051509;28;20367;-78
2021/10/29 01:18:09;;;;;;;15.10;11.05;;;14.70;85.30;;;;;;5051536;28;20056;-77
2021/10/29 01:20:35;;;;;;;14.23;10.32;;;14.80;85.40;;;;;;5036042;28;20021;-77
2021/10/29 01:23:00;;;;;;;13.55;10.02;;;14.80;85.30;;;;;;5036192;28;20419;-77
2021/10/29 01:25:27;;;;;;;13.70;10.30;;;14.80;85.30;;;;;;5051540;28;20029;-76
2021/10/29 01:27:52;;;;;;;14.65;10.20;;;14.80;85.40;;;;;;5034643;28;20021;-78
2021/10/29 01:30:18;;;;;;;15.73;9.45;;;14.80;85.50;;;;;;5051127;28;20018;-78
2021/10/29 01:32:44;;;;;;;12.60;9.68;;;14.80;85.60;;;;;;5035832;28;20034;-77
2021/10/29 01:35:12;;;;;;;14.25;10.32;;;14.80;85.50;;;;;;5035950;28;20021;-77
2021/10/29 01:37:38;;;;;;;17.00;10.52;;;14.80;85.50;;;;;;5035725;28;20152;-78
2021/10/29 01:40:07;;;;;;;14.85;10.00;;;14.80;85.50;;;;;;5035693;28;20171;-77
2021/10/29 01:42:33;;;;;;;14.65;10.32;;;14.70;85.40;;;;;;5034745;28;20580;-76
2021/10/29 01:44:59;;;;;;;15.77;10.20;;;14.80;85.50;;;;;;5035720;28;20538;-78
2021/10/29 01:47:24;;;;;;;14.80;10.38;;;14.80;85.30;;;;;;5035653;28;20083;-77
2021/10/29 01:49:50;;;;;;;16.20;10.65;;;14.70;85.20;;;;;;5034205;28;20020;-78
2021/10/29 01:52:15;;;;;;;14.13;10.50;;;14.70;85.10;;;;;;5034355;28;20022;-77
2021/10/29 01:54:41;;;;;;;16.38;10.60;;;14.80;85.00;;;;;;5034305;28;20036;-77
2021/10/29 01:57:07;;;;;;;14.90;10.23;;;14.80;85.00;;;;;;5035246;28;20080;-76
2021/10/29 01:59:33;;;;;;;16.02;10.68;;;14.80;84.90;;;;;;5035174;28;20025;-76
2021/10/29 02:01:59;;;;;;;15.50;10.07;;;14.80;84.90;;;;;;5034163;28;20025;-76
2021/10/29 02:04:25;;;;;;;15.30;10.65;;;14.70;84.90;;;;;;5034082;28;20510;-76
2021/10/29 02:06:51;;;;;;;17.20;11.50;;;14.70;84.80;;;;;;5050827;28;20056;-78
2021/10/29 02:09:17;;;;;;;17.80;10.65;;;14.80;84.90;;;;;;5050524;28;20029;-77
2021/10/29 02:11:43;;;;;;;18.20;10.63;;;14.80;84.90;;;;;;5034784;28;20025;-76
2021/10/29 02:14:09;;;;;;;15.10;10.30;;;14.80;84.80;;;;;;5033236;28;20041;-78
2021/10/29 02:16:35;;;;;;;14.82;10.40;;;14.80;84.80;;;;;;5034015;28;20395;-77
2021/10/29 02:19:01;;;;;;;16.92;11.02;;;14.80;85.00;;;;;;5034870;28;20026;-77
2021/10/29 02:21:29;;;;;;;14.93;10.32;;;14.70;84.80;;;;;;5050521;28;20026;-77
2021/10/29 02:23:55;;;;;;;16.77;11.02;;;14.70;84.90;;;;;;5033847;28;20025;-77
2021/10/29 02:26:20;;;;;;;17.13;11.27;;;14.80;85.00;;;;;;5035020;28;20032;-76
2021/10/29 02:28:46;;;;;;;16.40;11.15;;;14.70;84.80;;;;;;5033567;28;20025;-77
2021/10/29 02:31:12;;;;;;;17.10;10.68;;;14.70;84.90;;;;;;5034783;28;20037;-78
2021/10/29 02:33:37;;;;;;;16.23;11.02;;;14.80;84.80;;;;;;5050138;28;20114;-77
2021/10/29 02:36:03;;;;;;;17.70;10.85;;;14.80;84.80;;;;;;5050326;28;20042;-77
2021/10/29 02:38:28;;;;;;;15.48;10.18;;;14.80;84.60;;;;;;5049926;28;20099;-76
2021/10/29 02:40:54;;;;;;;15.52;10.18;;;14.80;84.50;;;;;;5033392;28;20025;-76
2021/10/29 02:43:21;;;;;;;17.30;10.48;;;14.80;84.50;;;;;;5034644;28;20498;-77
2021/10/29 02:45:46;;;;;;;17.25;10.88;;;14.80;84.40;;;;;;5034667;28;20049;-77
2021/10/29 02:48:12;;;;;;;16.52;10.70;;;14.80;84.40;;;;;;5033262;28;20068;-77
2021/10/29 02:50:38;;;;;;;15.38;9.85;;;14.80;84.30;;;;;;5048758;28;20136;-76
2021/10/29 02:53:05;;;;;;;14.32;10.07;;;14.80;84.20;;;;;;5049576;28;20534;-76
2021/10/29 02:55:31;;;;;;;15.93;10.73;;;14.80;84.30;;;;;;5034404;28;20588;-77
2021/10/29 02:57:57;;;;;;;16.20;10.05;;;14.80;84.20;;;;;;5032810;28;20510;-78
2021/10/29 03:00:22;;;;;;;17.08;10.50;;;14.80;84.30;;;;;;5034211;28;20033;-76
2021/10/29 03:02:48;;;;;;;17.70;10.30;;;14.80;84.30;;;;;;5033092;28;20045;-77
2021/10/29 03:05:14;;;;;;;15.70;10.55;;;14.80;84.50;;;;;;5033189;28;20017;-76
2021/10/29 03:07:40;;;;;;;15.70;10.50;;;14.80;84.50;;;;;;5032993;28;20025;-77
2021/10/29 03:10:07;;;;;;;15.20;10.02;;;14.70;84.30;;;;;;5033870;28;20105;-77
2021/10/29 03:12:34;;;;;;;14.77;9.73;;;14.80;84.20;;;;;;5032775;28;20040;-76
2021/10/29 03:15:00;;;;;;;16.15;10.32;;;14.70;84.10;;;;;;5032830;28;20032;-77
2021/10/29 03:17:25;;;;;;;16.33;10.15;;;14.70;84.80;;;;;;5033963;28;20017;-76
2021/10/29 03:19:51;;;;;;;14.23;10.27;;;14.70;84.20;;;;;;5032428;28;20052;-76
2021/10/29 03:22:17;;;;;;;14.63;9.52;;;14.70;84.20;;;;;;5032733;28;20049;-76
2021/10/29 03:24:42;;;;;;;14.85;10.02;;;14.70;84.30;;;;;;5032404;28;20060;-76
2021/10/29 03:27:08;;;;;;;17.65;10.55;;;14.70;84.30;;;;;;5033777;28;20021;-76
2021/10/29 03:29:34;;;;;;;16.50;10.00;;;14.70;84.30;;;;;;5032318;28;20030;-76
2021/10/29 03:32:00;;;;;;;16.02;10.05;;;14.70;84.30;;;;;;5032480;28;20044;-77
2021/10/29 03:34:26;;;;;;;16.38;10.60;;;14.70;84.50;;;;;;5033683;28;20028;-76
2021/10/29 03:36:51;;;;;;;17.50;10.57;;;14.70;84.50;;;;;;5032429;28;20025;-77
2021/10/29 03:39:29;;;;;;;15.45;9.73;;;14.70;84.50;;;;;;5033176;28;20028;-77
2021/10/29 03:42:06;;;;;;;15.50;10.07;;;14.70;84.40;;;;;;5032287;28;20037;-76
2021/10/29 03:44:50;;;;;;;16.02;9.73;;;14.60;84.40;;;;;;5032331;28;20025;-76
2021/10/29 03:47:17;;;;;;;15.00;10.20;;;14.70;84.50;;;;;;5033308;28;20446;-77
2021/10/29 03:49:49;;;;;;;14.82;10.25;;;14.70;84.20;;;;;;5033201;28;20021;-77
2021/10/29 03:54:50;;;;;;;14.65;9.48;;;14.60;84.30;;;;;;5033550;28;20037;-77
2021/10/29 03:57:26;;;;;;;14.43;9.15;;;14.70;84.40;;;;;;5033071;28;20028;-77
2021/10/29 03:59:54;;;;;;;16.88;9.63;;;14.60;84.40;;;;;;5032992;28;20047;-76
2021/10/29 04:02:20;;;;;;;15.82;9.63;;;14.60;84.30;;;;;;5032032;28;20018;-76
2021/10/29 04:04:46;;;;;;;13.20;8.90;;;14.60;84.30;;;;;;5032003;28;20075;-77
2021/10/29 04:07:12;;;;;;;13.55;8.80;;;14.70;84.50;;;;;;5031880;28;20632;-76
2021/10/29 04:09:38;;;;;;;18.05;9.82;;;14.70;84.50;;;;;;5031403;28;20116;-77
2021/10/29 04:12:04;;;;;;;14.57;9.50;;;14.60;84.50;;;;;;5031921;28;20026;-77
2021/10/29 04:14:30;;;;;;;16.60;9.60;;;14.70;84.60;;;;;;5031651;28;20075;-78
2021/10/29 04:16:56;;;;;;;14.65;10.10;;;14.60;84.60;;;;;;5031665;28;20494;-78
2021/10/29 04:19:22;;;;;;;14.15;9.52;;;14.60;84.60;;;;;;5031510;28;20112;-78
2021/10/29 04:21:47;;;;;;;13.45;8.95;;;14.60;84.70;;;;;;5031681;28;20117;-77
2021/10/29 04:24:13;;;;;;;13.70;8.68;;;14.70;84.90;;;;;;5031686;28;20029;-76
2021/10/29 04:26:39;;;;;;;13.27;9.02;;;14.60;84.80;;;;;;5032807;28;20029;-77
2021/10/29 04:29:13;;;;;;;13.80;8.82;;;14.70;84.80;;;;;;5031303;28;20029;-77
2021/10/29 04:31:46;;;;;;;15.43;9.55;;;14.70;84.90;;;;;;5031642;28;20033;-77
2021/10/29 04:34:12;;;;;;;13.85;8.80;;;14.70;84.90;;;;;;5032607;28;20032;-77
2021/10/29 04:36:38;;;;;;;13.07;8.93;;;14.70;85.00;;;;;;5030806;28;20108;-76
2021/10/29 04:39:09;;;;;;;12.85;8.52;;;14.60;85.00;;;;;;5032246;28;20092;-76
2021/10/29 04:41:35;;;;;;;13.00;8.20;;;14.70;85.00;;;;;;5032493;28;20071;-77
2021/10/29 04:44:00;;;;;;;12.45;8.15;;;14.70;85.10;;;;;;5032724;28;20116;-77
2021/10/29 04:46:26;;;;;;;12.75;8.63;;;14.60;85.10;;;;;;5031293;28;20032;-78
2021/10/29 04:48:52;;;;;;;13.68;9.23;;;14.60;85.10;;;;;;5035334;28;20025;-77
2021/10/29 04:51:17;;;;;;;13.60;8.18;;;14.70;85.10;;;;;;5052202;28;20478;-78
2021/10/29 04:53:43;;;;;;;12.85;8.68;;;14.70;85.00;;;;;;5052195;28;20032;-79
2021/10/29 04:56:08;;;;;;;12.48;7.63;;;14.60;84.90;;;;;;5052392;28;20029;-78
2021/10/29 04:58:34;;;;;;;12.48;8.15;;;14.60;84.80;;;;;;5050903;28;20029;-77
2021/10/29 05:01:00;;;;;;;13.25;8.70;;;14.60;84.80;;;;;;5050370;28;20028;-77
2021/10/29 05:03:25;;;;;;;12.52;8.45;;;14.60;84.60;;;;;;5052260;28;20025;-77
2021/10/29 05:05:51;;;;;;;13.38;8.60;;;14.60;84.70;;;;;;5051067;28;20393;-76
2021/10/29 05:08:17;;;;;;;12.48;8.98;;;14.60;84.50;;;;;;5050868;28;20389;-76
2021/10/29 05:10:42;;;;;;;11.93;7.68;;;14.60;84.60;;;;;;5052005;28;20033;-77
2021/10/29 05:13:08;;;;;;;12.07;8.00;;;14.60;84.30;;;;;;5052455;28;20025;-77
2021/10/29 05:15:34;;;;;;;12.25;8.07;;;14.70;84.50;;;;;;5050983;28;20048;-77
2021/10/29 05:18:01;;;;;;;12.18;8.02;;;14.70;84.40;;;;;;5051732;28;20032;-76
2021/10/29 05:20:27;;;;;;;11.32;7.57;;;14.70;84.50;;;;;;5043741;28;20025;-76
2021/10/29 05:22:52;;;;;;;11.80;7.72;;;14.70;84.40;;;;;;5046701;28;20032;-78
2021/10/29 05:25:18;;;;;;;11.60;7.32;;;14.80;84.50;;;;;;5048262;28;20507;-77
2021/10/29 05:27:43;;;;;;;10.45;7.15;;;14.80;84.50;;;;;;5046831;28;20409;-77
2021/10/29 05:30:10;;;;;;;11.27;7.10;;;14.70;84.30;;;;;;5048303;28;20024;-77
2021/10/29 05:32:37;;;;;;;13.35;7.60;;;14.70;84.30;;;;;;5048172;28;20057;-78
2021/10/29 05:35:05;;;;;;;12.35;7.32;;;14.80;84.30;;;;;;5046571;28;20029;-77
2021/10/29 05:37:32;;;;;;;12.25;7.97;;;14.80;84.40;;;;;;5044157;28;20895;-76
2021/10/29 05:39:58;;;;;;;11.43;7.22;;;14.80;84.10;;;;;;5029319;28;20064;-77
2021/10/29 05:42:25;;;;;;;10.60;6.88;;;14.70;83.90;;;;;;5028348;28;20029;-77
2021/10/29 05:44:52;;;;;;;11.98;7.78;;;14.70;83.90;;;;;;5031198;28;20083;-78
2021/10/29 05:47:17;;;;;;;11.48;7.78;;;14.70;83.90;;;;;;5048243;28;20032;-79
2021/10/29 05:49:44;;;;;;;12.20;7.40;;;14.70;83.60;;;;;;5047069;28;20177;-78
2021/10/29 05:52:16;;;;;;;12.60;7.57;;;14.60;83.00;;;;;;5046149;28;20032;-77
2021/10/29 05:57:20;;;;;;;11.00;7.18;;;14.60;83.30;;;;;;5029317;28;20030;-78
2021/10/29 05:59:46;;;;;;;13.38;7.80;;;14.60;83.60;;;;;;5029019;28;20494;-78
2021/10/29 06:02:11;;;;;;;11.73;7.50;;;14.60;83.50;;;;;;5029413;28;20026;-77
2021/10/29 06:04:38;;;;;;;12.25;7.43;;;14.60;83.80;;;;;;5027701;28;20090;-77
2021/10/29 06:07:04;;;;;;;13.68;8.10;;;14.60;83.90;;;;;;5027764;28;20032;-77
2021/10/29 06:09:30;;;;;;;12.57;7.65;;;14.70;83.90;;;;;;5027564;28;20033;-78
2021/10/29 06:11:56;;;;;;;12.05;7.38;;;14.60;83.80;;;;;;5028983;28;20446;-78
2021/10/29 06:14:22;;;;;;;11.43;6.95;;;14.60;83.90;;;;;;5028710;28;20254;-77
2021/10/29 06:16:48;;;;;;;13.15;7.10;;;14.60;84.00;;;;;;5029052;28;20034;-79
2021/10/29 06:19:14;;;;;;;12.82;7.25;;;14.60;83.90;;;;;;5028444;28;20034;-77
2021/10/29 06:22:05;;;;;;;11.38;7.00;;;14.60;83.90;;;;;;5028205;28;20025;-79
2021/10/29 06:24:27;;;;;;;10.93;7.15;;;14.60;84.00;;;;;;5029231;28;20491;-78
2021/10/29 06:27:00;;;;;;;11.98;7.13;;;14.60;84.10;;;;;;5048860;28;20090;-78
2021/10/29 06:29:25;;;;;;;10.57;7.03;;;14.60;84.00;;;;;;5047164;28;20087;-77
2021/10/29 06:31:51;;;;;;;23.92;7.78;;;14.60;84.10;;;;;;5048483;28;20037;-76
2021/10/29 06:34:17;;;;;;;20.80;7.57;;;14.60;83.60;;;;;;5047003;28;20059;-76
2021/10/29 06:36:42;;;;;;;14.30;7.30;;;14.60;82.70;;;;;;5047405;28;20482;-77
2021/10/29 06:39:09;;;;;;;12.95;7.28;;;14.60;82.40;;;;;;5047784;28;20083;-75
2021/10/29 06:41:35;;;;;;;14.93;7.38;;;14.60;82.90;;;;;;5048343;28;20052;-76
2021/10/29 06:44:41;;;;;;;14.98;7.15;;;14.60;81.30;;;;;;5048038;28;20028;-76
2021/10/29 06:47:20;;;;;;;12.52;7.05;;;14.60;82.30;;;;;;5047121;28;20053;-76
2021/10/29 07:00:22;;;;;;;13.48;7.00;;;14.60;80.80;;;;;;5047379;28;20429;-76
2021/10/29 07:40:16;;;;;;;13.02;7.35;;;15.10;76.80;;;;;;5047426;28;20051;-77
2021/10/29 07:42:53;;;;;;;11.40;6.65;;;15.10;76.50;;;;;;5045795;28;20033;-78
2021/10/29 07:45:19;;;;;;;15.30;7.30;;;15.10;76.50;;;;;;5046531;28;20029;-76
2021/10/29 07:47:46;;;;;;;10.82;6.60;;;15.20;76.40;;;;;;5045830;28;20078;-77
2021/10/29 07:50:13;;;;;;;12.50;7.57;;;15.20;75.40;;;;;;5047059;28;20513;-77
2021/10/29 07:52:41;;;;;;;10.82;7.00;;;15.30;75.50;;;;;;5046143;28;20565;-77
2021/10/29 07:55:09;;;;;;;11.65;6.95;;;15.40;75.10;;;;;;5045992;28;20111;-78
2021/10/29 07:57:36;;;;;;;11.88;7.30;;;15.40;75.10;;;;;;5047178;28;20040;-77
2021/10/29 08:00:03;;;;;;;11.40;6.80;;;15.40;74.90;;;;;;5045664;28;20035;-77
2021/10/29 08:02:30;;;;;;;10.90;7.20;;;15.50;75.00;;;;;;5045671;28;20024;-77
2021/10/29 08:04:56;;;;;;;11.15;7.15;;;15.50;75.00;;;;;;5045873;28;20043;-78
2021/10/29 08:07:21;;;;;;;13.07;7.18;;;15.50;75.10;;;;;;5046681;28;20048;-76
2021/10/29 08:09:47;;;;;;;11.70;7.53;;;15.50;74.90;;;;;;5046151;28;20478;-76
2021/10/29 08:12:15;;;;;;;10.07;6.68;;;15.60;75.30;;;;;;5045187;28;20078;-78
2021/10/29 08:14:42;;;;;;;11.35;7.20;;;15.60;75.30;;;;;;5045282;28;20025;-78
2021/10/29 08:17:07;;;;;;;11.23;7.53;;;15.70;75.10;;;;;;5045463;28;20021;-77
2021/10/29 08:19:33;;;;;;;10.70;7.05;;;15.70;74.90;;;;;;5047365;28;20035;-78
2021/10/29 08:22:00;;;;;;;10.57;7.13;;;15.70;74.90;;;;;;5046889;28;20021;-78
2021/10/29 08:24:26;;;;;;;11.32;7.45;;;15.70;74.90;;;;;;5045434;28;20029;-78
2021/10/29 08:26:52;;;;;;;11.90;7.57;;;15.70;75.40;;;;;;5046424;28;20048;-79
2021/10/29 08:29:20;;;;;;;11.30;7.15;;;15.70;75.70;;;;;;5046339;28;20477;-77
2021/10/29 08:31:48;;;;;;;11.90;7.22;;;15.70;76.20;;;;;;5045588;28;20089;-78
2021/10/29 08:34:15;;;;;;;13.18;7.97;;;15.70;76.10;;;;;;5046312;28;20092;-77
2021/10/29 08:36:43;;;;;;;10.93;6.78;;;15.70;76.00;;;;;;5046639;28;20024;-77
2021/10/29 08:39:09;;;;;;;10.75;7.60;;;15.70;76.00;;;;;;5045078;28;20028;-77
2021/10/29 08:41:36;;;;;;;11.48;7.85;;;15.70;76.00;;;;;;5046277;28;20033;-78
2021/10/29 08:44:05;;;;;;;11.38;7.60;;;15.70;76.30;;;;;;5045093;28;20056;-78
2021/10/29 08:46:31;;;;;;;12.07;7.60;;;15.70;76.00;;;;;;5046508;28;20486;-77
2021/10/29 08:48:58;;;;;;;11.68;7.72;;;15.70;76.00;;;;;;5045735;28;20082;-78
2021/10/29 08:51:24;;;;;;;10.73;7.35;;;15.80;76.00;;;;;;5046373;28;20040;-76
2021/10/29 08:53:50;;;;;;;12.07;7.40;;;15.80;75.80;;;;;;5044971;28;20025;-80
2021/10/29 08:56:16;;;;;;;12.93;7.70;;;15.80;75.80;;;;;;5046137;28;20040;-78
2021/10/29 08:59:16;;;;;;;11.25;7.38;;;15.80;75.90;;;;;;5044359;28;20498;-79
2021/10/29 09:05:04;;;;;;;10.80;7.28;;;15.90;76.40;;;;;;5046389;28;19905;-78
2021/10/29 09:32:35;;;;;;;10.18;6.72;;;15.90;76.70;;;;;;5051785;28;20036;-77
2021/10/29 09:35:08;;;;;;;11.05;7.53;;;15.90;76.70;;;;;;5053847;28;20075;-78
2021/10/29 09:37:53;;;;;;;13.32;7.53;;;15.90;76.80;;;;;;5052580;28;20032;-77
2021/10/29 09:40:20;;;;;;;9.68;6.55;;;15.90;76.60;;;;;;5053936;28;20024;-77
2021/10/29 09:42:46;;;;;;;12.05;7.03;;;15.90;76.50;;;;;;5053875;28;20028;-78
2021/10/29 09:45:25;;;;;;;11.57;7.05;;;16.00;76.60;;;;;;5054041;28;20021;-76
2021/10/29 09:48:21;;;;;;;10.90;6.65;;;15.90;76.50;;;;;;5053977;28;20031;-77
2021/10/29 09:50:51;;;;;;;11.00;6.88;;;16.00;76.80;;;;;;5053952;28;20123;-77
2021/10/29 09:58:50;;;;;;;8.95;5.85;;;16.00;76.20;;;;;;5055082;28;20021;-77
2021/10/29 10:01:18;;;;;;;9.93;5.88;;;16.00;76.10;;;;;;5054033;28;20044;-77
2021/10/29 10:03:47;;;;;;;9.50;6.15;;;16.10;75.90;;;;;;5054977;28;20025;-76
2021/10/29 10:06:13;;;;;;;9.45;5.45;;;16.10;75.80;;;;;;5053609;28;20021;-78
2021/10/29 10:08:40;;;;;;;10.18;6.10;;;16.10;76.00;;;;;;5053236;28;20059;-77
2021/10/29 10:11:08;;;;;;;9.30;5.82;;;16.10;76.10;;;;;;5053888;28;20488;-78
2021/10/29 10:13:35;;;;;;;9.95;5.78;;;16.10;76.20;;;;;;5053448;28;20079;-77
2021/10/29 10:16:02;;;;;;;9.77;5.50;;;16.10;76.20;;;;;;5053382;28;20440;-78
2021/10/29 10:18:29;;;;;;;8.45;5.60;;;16.10;76.20;;;;;;5053122;28;20039;-76
2021/10/29 10:20:58;;;;;;;8.48;5.30;;;16.20;76.30;;;;;;5053482;28;20028;-78
2021/10/29 10:23:31;;;;;;;11.45;5.65;;;16.20;76.10;;;;;;5053252;28;20033;-77
2021/10/29 10:26:17;;;;;;;8.70;5.20;;;16.20;76.10;;;;;;5053661;28;20110;-77
2021/10/29 10:42:41;;;;;;;8.52;4.80;;;16.30;75.90;;;;;;5054293;28;20448;-79
2021/10/29 10:45:20;;;;;;;8.10;4.63;;;16.20;76.00;;;;;;5052853;28;20113;-78
2021/10/29 10:47:51;;;;;;;7.53;5.15;;;16.30;76.20;;;;;;5052784;28;20064;-77
2021/10/29 10:50:21;;;;;;;8.15;5.18;;;16.30;75.90;;;;;;5053803;28;20081;-79
2021/10/29 10:53:11;;;;;;;8.05;4.82;;;16.30;75.80;;;;;;5052930;28;20053;-77
2021/10/29 10:56:11;;;;;;;8.82;5.30;;;16.30;75.90;;;;;;5069425;28;20031;-78
2021/10/29 11:12:45;;;;;;;7.55;4.47;;;16.10;77.40;;;;;;5053701;28;20093;-78
2021/10/29 11:15:17;;;;;;;8.30;4.80;;;16.10;77.40;;;;;;5068679;28;20060;-77
2021/10/29 11:17:50;;;;;;;;;;;16.00;77.50;;;;;;5053074;28;20394;-77
2021/10/29 11:23:05;;;;;;;7.45;4.32;;;16.00;77.80;;;;;;5053542;28;20033;-77
2021/10/29 11:26:06;;;;;;;7.18;4.38;;;16.00;77.80;;;;;;5068709;28;20032;-77
2021/10/29 11:28:39;;;;;;;6.85;4.40;;;15.90;77.80;;;;;;5051966;28;20561;-78
2021/10/29 11:31:11;;;;;;;7.20;4.03;;;15.90;77.80;;;;;;5052092;28;20079;-78
2021/10/29 11:33:48;;;;;;;7.32;4.63;;;15.90;77.90;;;;;;5051716;28;20038;-77
2021/10/29 11:36:16;;;;;;;7.72;4.55;;;15.90;77.50;;;;;;5053322;28;20103;-78
2021/10/29 11:38:46;;;;;;;7.75;3.92;;;15.90;77.10;;;;;;5051650;28;20250;-77
2021/10/29 11:41:17;;;;;;;7.00;4.20;;;15.90;77.40;;;;;;5053081;28;20024;-78
2021/10/29 11:43:43;;;;;;;8.27;4.07;;;16.00;77.50;;;;;;5051368;28;20049;-78
2021/10/29 11:46:11;;;;;;;6.70;4.30;;;16.00;77.20;;;;;;5052765;28;20060;-77
2021/10/29 11:48:59;;;;;;;7.30;4.15;;;16.00;77.60;;;;;;5052691;28;20036;-77
2021/10/29 11:51:26;;;;;;;7.05;4.15;;;16.00;77.80;;;;;;5052905;28;20028;-78
2021/10/29 11:53:57;;;;;;;7.38;3.97;;;16.00;77.80;;;;;;5051533;28;20032;-79
2021/10/29 12:07:20;;;;;;;6.10;3.55;;;16.00;78.10;;;;;;5052701;28;20463;-78
2021/10/29 12:09:48;;;;;;;7.95;3.90;;;16.00;78.00;;;;;;5051401;28;20033;-77
2021/10/29 12:12:19;;;;;;;7.10;4.13;;;16.00;78.00;;;;;;5051333;28;20051;-77
2021/10/29 12:14:47;;;;;;;7.38;3.95;;;16.00;78.30;;;;;;5051107;28;20083;-77
2021/10/29 12:17:29;;;;;;;6.55;3.63;;;16.00;78.20;;;;;;5052428;28;20421;-77
2021/10/29 12:19:59;;;;;;;8.63;3.78;;;15.90;78.50;;;;;;5050938;28;20021;-78
2021/10/29 12:25:11;;;;;;;6.45;4.10;;;15.90;78.70;;;;;;5052332;28;20025;-77
2021/10/29 12:27:40;;;;;;;6.90;3.80;;;15.90;79.00;;;;;;5051060;28;20028;-79
2021/10/29 12:30:32;;;;;;;7.10;4.07;;;15.90;79.10;;;;;;5050577;28;20029;-77
2021/10/29 13:03:25;;;;;;;10.82;4.47;;;15.70;80.80;;;;;;5051851;28;20032;-77
2021/10/29 13:05:55;;;;;;;9.57;3.80;;;15.70;80.70;;;;;;5050465;28;20027;-77
2021/10/29 13:08:22;;;;;;;9.27;4.47;;;15.70;80.70;;;;;;5050463;28;20025;-77
2021/10/29 13:10:54;;;;;;;7.30;3.88;;;15.70;80.70;;;;;;5050415;28;20445;-76
2021/10/29 13:13:30;;;;;;;9.23;4.00;;;15.70;80.80;;;;;;5050656;28;20025;-77
2021/10/29 13:16:02;;;;;;;9.85;4.50;;;15.70;80.80;;;;;;5050280;28;20407;-77
2021/10/29 13:18:39;;;;;;;8.20;3.85;;;15.80;80.90;;;;;;5050103;28;20048;-77
2021/10/29 13:24:24;;;;;;;7.53;3.55;;;15.80;80.90;;;;;;5032119;28;20564;-76
2021/10/29 13:27:10;;;;;;;7.97;3.97;;;15.80;80.90;;;;;;5051425;28;20374;-77
2021/10/29 13:35:35;;;;;;;7.90;3.78;;;15.80;81.20;;;;;;5051768;28;20068;-76
2021/10/29 13:54:37;;;;;;;6.93;3.70;;;15.70;82.20;;;;;;5017577;28;20087;-78
2021/10/29 14:30:03;;;;;;;7.03;4.18;;;15.50;82.90;;;;;;5054642;28;20070;-78
2021/10/29 14:32:42;;;;;;;7.50;4.45;;;15.50;82.70;;;;;;5053144;28;20029;-78
2021/10/29 14:38:16;;;;;;;10.82;4.60;;;15.40;83.00;;;;;;5040736;28;20032;-77
2021/10/29 14:51:12;;;;;;;7.60;4.28;;;15.40;82.40;;;;;;5054296;28;20028;-78
2021/10/29 15:00:13;;;;;;;7.97;4.55;;;15.40;82.10;;;;;;5053714;28;20071;-78
2021/10/29 15:17:53;;;;;;;9.02;4.90;;;15.30;82.80;;;;;;5104912;22;20077;-75
2021/10/29 15:41:08;;;;;;;6.70;4.20;;;15.40;81.00;;;;;;5029735;28;20071;-75
2021/10/29 15:44:25;;;;;;;7.78;4.65;;;15.30;80.60;;;;;;5053259;28;20055;-75
2021/10/29 15:46:58;;;;;;;7.40;4.75;;;15.30;80.70;;;;;;5051531;28;20072;-75
2021/10/29 15:49:36;;;;;;;7.47;4.68;;;15.40;80.70;;;;;;5051520;28;20123;-75
2021/10/29 15:52:10;;;;;;;8.32;5.05;;;15.40;80.80;;;;;;5052676;28;20025;-75
2021/10/29 15:54:41;;;;;;;7.45;4.50;;;15.30;80.60;;;;;;5051342;28;20056;-75
2021/10/29 15:57:07;;;;;;;7.85;5.00;;;15.30;80.70;;;;;;5051489;28;20017;-75
2021/10/29 15:59:43;;;;;;;7.82;4.93;;;15.30;80.70;;;;;;5051239;28;20029;-75
2021/10/29 16:02:31;;;;;;;8.48;4.85;;;15.30;80.70;;;;;;5051506;28;20394;-75
2021/10/29 16:18:37;;;;;;;9.20;5.22;;;15.10;81.60;;;;;;5052128;28;20398;-74
2021/10/29 16:21:04;;;;;;;8.43;4.65;;;15.10;81.40;;;;;;5050810;28;20017;-75
2021/10/29 16:23:30;;;;;;;9.13;4.95;;;15.10;81.50;;;;;;5051142;28;20032;-75
2021/10/29 16:26:04;;;;;;;8.65;5.18;;;15.10;81.70;;;;;;5051037;28;20025;-75
2021/10/29 16:28:32;;;;;;;9.10;5.28;;;15.10;81.50;;;;;;5052077;28;20021;-75
2021/10/29 16:30:59;;;;;;;8.85;4.95;;;15.10;81.70;;;;;;5050273;28;20021;-74
2021/10/29 16:33:26;;;;;;;11.00;5.03;;;15.10;81.60;;;;;;5051924;28;20024;-74
2021/10/29 16:35:53;;;;;;;15.13;5.63;;;15.10;82.00;;;;;;5050445;28;20025;-75
2021/10/29 16:38:19;;;;;;;10.52;5.88;;;15.00;81.50;;;;;;5050520;28;20454;-73
2021/10/29 16:40:44;;;;;;;9.57;5.40;;;15.10;81.50;;;;;;5045051;28;20063;-75
2021/10/29 16:43:10;;;;;;;12.23;5.75;;;15.10;81.40;;;;;;5051684;28;20016;-74
2021/10/29 16:45:43;;;;;;;10.52;5.50;;;15.00;81.30;;;;;;5041379;28;20479;-74
2021/10/29 16:48:09;;;;;;;10.60;5.85;;;15.00;81.40;;;;;;5039035;28;20028;-74
2021/10/29 16:50:35;;;;;;;9.60;5.75;;;15.00;81.40;;;;;;5050280;28;20398;-74
2021/10/29 16:53:00;;;;;;;9.68;6.35;;;15.00;81.50;;;;;;5050536;28;20025;-74
2021/10/29 16:55:27;;;;;;;11.27;6.43;;;15.00;80.70;;;;;;5051816;28;20026;-75
2021/10/29 16:57:52;;;;;;;9.20;6.22;;;15.00;80.60;;;;;;5052068;28;20107;-73
2021/10/29 17:00:18;;;;;;;14.10;6.43;;;15.00;80.70;;;;;;5070370;28;20490;-74
2021/10/29 17:02:44;;;;;;;9.93;6.25;;;14.90;80.60;;;;;;5071340;28;20025;-74
2021/10/29 17:05:11;;;;;;;11.55;5.90;;;15.00;80.50;;;;;;5069351;28;20020;-75
2021/10/29 17:07:37;;;;;;;10.48;6.57;;;15.00;80.80;;;;;;5071485;28;20024;-74
2021/10/29 17:10:08;;;;;;;9.75;5.82;;;15.00;81.00;;;;;;5070204;28;20024;-74
2021/10/29 17:12:40;;;;;;;10.10;5.97;;;15.00;81.20;;;;;;5071637;28;20481;-74
2021/10/29 17:15:08;;;;;;;14.68;6.68;;;15.00;80.90;;;;;;5070136;28;20025;-75
2021/10/29 17:17:33;;;;;;;18.10;6.75;;;15.00;81.10;;;;;;5071497;28;20075;-73
2021/10/29 17:19:59;;;;;;;14.23;6.70;;;14.90;81.30;;;;;;5071564;28;20466;-74
2021/10/29 17:22:25;;;;;;;11.77;6.53;;;15.00;80.90;;;;;;5047546;28;20025;-74
2021/10/29 17:24:50;;;;;;;13.40;5.78;;;15.00;81.90;;;;;;5044994;28;20029;-74
2021/10/29 17:27:16;;;;;;;12.48;6.65;;;15.00;81.50;;;;;;5044409;28;20032;-75
2021/10/29 17:29:42;;;;;;;10.18;5.70;;;15.00;80.90;;;;;;5049799;28;20033;-75
2021/10/29 17:32:11;;;;;;;11.90;6.72;;;15.00;80.90;;;;;;5050220;28;20028;-74
2021/10/29 17:34:38;;;;;;;10.07;5.85;;;15.00;81.20;;;;;;5049954;28;20025;-74